Weather reports worldwide

Advertisment
Carlsfeld, Germany (10574): temperature & dewpoint: 18.01.2020 03:00:00 - 24.01.2020 03:00:00 (CET)Carlsfeld, Germany (10574): temperature 5cm & temperature -5cm: 18.01.2020 03:00:00 - 24.01.2020 03:00:00 (CET)Carlsfeld, Germany (10574): temperature -20cm & temperature -100cm: 18.01.2020 03:00:00 - 24.01.2020 03:00:00 (CET)Carlsfeld, Germany (10574): wind speed & gusts: 18.01.2020 03:00:00 - 24.01.2020 03:00:00 (CET)Carlsfeld, Germany (10574): wind direction: 18.01.2020 03:00:00 - 24.01.2020 03:00:00 (CET)Carlsfeld, Germany (10574): visibility: 18.01.2020 03:00:00 - 24.01.2020 03:00:00 (CET)Carlsfeld, Germany (10574): sunshine duration: 18.01.2020 03:00:00 - 24.01.2020 03:00:00 (CET)Carlsfeld, Germany (10574): precipitation: 18.01.2020 03:00:00 - 24.01.2020 03:00:00 (CET)
Date & Time tt [°C] td [°C] tt 5cm [°C] tt -5cm [°C] tt -20cm [°C] tt -100cm [°C] ff [km/h] ff [kn] fx [km/h] fx [kn] dd vv [km] sd [min] rr [mm]
24.01.2020 03:00:00 - - - - - - - - - - - - - -
24.01.2020 02:00:00 -4,9 -7,1 -6,8 -0,9 0,5 3,2 7 4 12 7 SW 18 0 0,0
24.01.2020 01:00:00 -4,7 -7,2 -7,0 -0,8 0,5 3,2 5 3 12 7 SW 21 0 0,0
24.01.2020 00:00:00 -4,5 -6,9 -6,8 -0,7 0,5 3,2 8 4 13 7 SW 20 0 0,0
23.01.2020 23:00:00 -4,8 -6,7 -8,0 -0,6 0,6 3,2 5 3 8 5 SW 19 0 0,0
23.01.2020 22:00:00 -4,2 -6,8 -8,1 -0,5 0,6 3,2 4 2 11 6 S 28 0 0,0
23.01.2020 21:00:00 -3,9 -7,2 -7,3 -0,4 0,6 3,2 5 3 10 6 SSW 33 0 0,0
23.01.2020 20:00:00 -3,8 -6,8 -8,0 -0,3 0,6 3,2 4 2 11 6 SSW 35 0 0,0
23.01.2020 19:00:00 -3,6 -6,9 -7,1 -0,2 0,6 3,2 5 3 10 5 S 47 0 0,0
23.01.2020 18:00:00 -3,6 -5,3 -6,1 -0,2 0,6 3,2 4 2 13 7 S 20 0 0,0
23.01.2020 17:00:00 -2,5 -4,1 -5,3 -0,1 0,6 3,2 5 3 8 5 SW 21 32 0,0
23.01.2020 16:00:00 -1,6 -3,8 -3,8 -0,1 0,6 3,2 5 3 10 5 SSE 23 60 0,0
23.01.2020 15:00:00 -1,3 -3,9 -0,6 -0,2 0,6 3,2 9 5 16 8 S 13 60 0,0
23.01.2020 14:00:00 -1,7 -3,6 -0,3 -0,2 0,6 3,2 6 3 16 9 S 17 31 0,0
23.01.2020 13:00:00 -2,6 -4,2 -1,3 -0,2 0,6 3,2 10 5 19 10 S 13 11 0,0
23.01.2020 12:00:00 -2,5 -4,1 -1,8 -0,2 0,6 3,2 8 4 22 12 S 14 26 0,0
23.01.2020 11:00:00 -3,2 -4,2 -2,3 -0,2 0,6 3,2 9 5 20 11 SSE 9 0 0,0
23.01.2020 10:00:00 -3,6 -4,6 -3,0 -0,2 0,6 3,2 7 4 16 9 SSE 6 0 0,0
23.01.2020 09:00:00 -3,8 -4,5 -3,3 -0,2 0,6 3,2 8 5 16 9 SSE 6 0 0,0
23.01.2020 08:00:00 -3,7 -4,5 -3,3 -0,2 0,6 3,2 5 3 14 7 SE 8 0 0,0
23.01.2020 07:00:00 -3,5 -4,4 -3,3 -0,2 0,6 3,2 6 3 11 6 SSE 16 0 0,0
23.01.2020 06:00:00 -3,2 -4,3 -3,0 -0,1 0,6 3,2 5 3 10 5 E 14 0 0,0
23.01.2020 05:00:00 -2,9 -3,9 -2,7 -0,1 0,6 3,2 4 2 11 6 ENE 14 0 0,0
23.01.2020 04:00:00 -2,6 -3,5 -2,5 -0,1 0,6 3,2 4 2 13 7 E 12 0 0,0
23.01.2020 03:00:00 -2,3 -3,4 -2,3 -0,1 0,6 3,3 4 2 10 6 E 17 0 0,0
23.01.2020 02:00:00 -2,2 -3,2 -2,1 -0,1 0,6 3,3 6 3 13 7 E 13 0 0,0
23.01.2020 01:00:00 -2,0 -2,8 -1,9 -0,1 0,6 3,3 3 1 14 7 ENE 14 0 0,0
23.01.2020 00:00:00 -1,8 -2,3 -1,6 -0,2 0,6 3,3 6 3 18 10 ENE 6 0 0,0
22.01.2020 23:00:00 -1,8 -2,3 -1,6 -0,2 0,6 3,3 6 3 16 8 NE 8 0 0,0
22.01.2020 22:00:00 -1,8 -2,2 -1,5 -0,2 0,6 3,3 5 3 20 11 NE 4,0 0 0,0
22.01.2020 21:00:00 -1,8 -2,2 -1,5 -0,2 0,6 3,3 8 4 21 12 NNE 0,8 0 0,0
22.01.2020 20:00:00 -1,5 -1,9 -1,3 -0,2 0,6 3,3 7 4 22 12 NNE 0,2 0 0,0
22.01.2020 19:00:00 -1,2 -1,6 -1,0 -0,2 0,6 3,3 7 4 27 15 N 1,7 0 0,1
22.01.2020 18:00:00 -1,0 -1,3 -0,8 -0,2 0,6 3,3 9 5 25 13 N 0,4 0 0,0
22.01.2020 17:00:00 -0,7 -1,1 -0,5 -0,2 0,6 3,3 8 4 23 12 N 0,8 0 0,0
22.01.2020 16:00:00 -0,1 -0,6 -0,1 -0,2 0,6 3,3 7 4 20 11 N 1,7 0 0,0
22.01.2020 15:00:00 0,6 -0,3 0,5 -0,2 0,6 3,3 6 3 22 12 N 2,3 0 0,0
22.01.2020 14:00:00 1,9 0,3 2,2 -0,3 0,6 3,3 5 3 16 9 N 18 1 0,0
22.01.2020 13:00:00 1,1 -1,7 2,0 -0,3 0,6 3,3 5 3 21 11 NE 47 27 0,0
22.01.2020 12:00:00 2,2 -6,7 3,8 -0,3 0,6 3,3 4 2 17 9 NE 37 57 0,0
22.01.2020 11:00:00 0,1 -7,9 1,5 -0,4 0,6 3,3 6 3 25 13 WNW 25 60 0,0
22.01.2020 10:00:00 0,6 -14,1 0,7 -0,4 0,6 3,3 7 4 24 13 N 22 60 0,0
22.01.2020 09:00:00 -2,0 -13,2 -5,2 -0,4 0,6 3,3 9 5 16 9 WNW 48 41 0,0
22.01.2020 08:00:00 -4,6 -12,0 -9,2 -0,4 0,7 3,3 6 3 13 7 WNW 70 0 0,0
22.01.2020 07:00:00 -4,5 -11,3 -9,8 -0,3 0,7 3,3 5 3 14 8 W 70 0 0,0
22.01.2020 06:00:00 -5,7 -10,8 -10,5 -0,3 0,7 3,3 5 3 9 5 W 70 0 0,0
22.01.2020 05:00:00 -4,8 -10,1 -9,8 -0,2 0,7 3,3 2 1 10 6 NNW 70 0 0,0
22.01.2020 04:00:00 -4,8 -10,5 -10,2 -0,2 0,7 3,3 4 2 11 6 N 70 0 0,0
22.01.2020 03:00:00 -5,3 -9,7 -10,2 -0,2 0,7 3,3 3 1 6 3 NNW 70 0 0,0
22.01.2020 02:00:00 -5,1 -9,8 -10,4 -0,1 0,7 3,3 3 2 8 4 W 70 0 0,0
22.01.2020 01:00:00 -5,9 -9,8 -9,8 -0,1 0,7 3,3 3 2 9 5 W 70 0 0,0
22.01.2020 00:00:00 -6,2 -8,7 -9,6 -0,1 0,7 3,3 6 4 9 5 WSW 70 0 0,0
21.01.2020 23:00:00 -6,1 -8,6 -9,7 -0,1 0,8 3,3 3 1 8 4 SSW 70 0 0,0
21.01.2020 22:00:00 -6,1 -8,1 -9,3 -0,1 0,8 3,3 5 3 8 4 WSW 70 0 0,0
21.01.2020 21:00:00 -4,9 -6,9 -9,6 0,0 0,8 3,3 0 0 5 3 N 70 0 0,0
21.01.2020 20:00:00 -4,1 -5,8 -9,2 0,0 0,8 3,3 2 1 8 5 NNW 62 0 0,0
21.01.2020 19:00:00 -3,4 -4,9 -8,2 0,0 0,8 3,3 6 4 10 5 WSW 42 0 0,0
21.01.2020 18:00:00 -2,7 -4,2 -9,1 0,0 0,8 3,3 3 1 7 4 W 38 0 0,0
21.01.2020 17:00:00 -1,4 -3,3 -6,7 0,0 0,8 3,3 6 3 8 4 W 35 23 0,0
21.01.2020 16:00:00 1,4 -2,5 -4,4 0,0 0,8 3,3 3 2 7 4 NW 53 60 0,0
21.01.2020 15:00:00 2,1 -3,6 2,9 0,0 0,8 3,3 4 2 9 5 ENE 43 60 0,0
21.01.2020 14:00:00 3,5 -3,5 4,2 0,0 0,8 3,3 3 2 8 4 E 49 59 0,0
21.01.2020 13:00:00 3,3 -3,4 4,7 0,0 0,8 3,3 4 2 6 4 ENE 52 60 0,0
21.01.2020 12:00:00 4,4 -3,6 4,1 0,0 0,8 3,3 4 2 10 6 SW 30 60 0,0
21.01.2020 11:00:00 -0,5 -3,3 -0,8 0,0 0,8 3,3 3 1 4 2 S 24 60 0,0
21.01.2020 10:00:00 -3,2 -5,2 -3,8 0,0 0,8 3,3 0 0 6 3 N 28 60 0,0
21.01.2020 09:00:00 -5,2 -7,3 -7,2 0,0 0,8 3,3 6 3 9 5 WSW 36 41 0,0
21.01.2020 08:00:00 -5,6 -7,4 -10,6 0,0 0,8 3,3 5 3 13 7 SW 57 0 0,0
21.01.2020 07:00:00 -3,6 -7,7 -8,6 0,0 0,9 3,3 4 2 10 5 SW 70 0 0,0
21.01.2020 06:00:00 -3,8 -7,3 -9,8 0,1 0,9 3,3 3 1 11 6 SSW 70 0 0,0
21.01.2020 05:00:00 -4,0 -7,3 -8,4 0,1 0,9 3,3 7 4 11 6 SW 70 0 0,0
21.01.2020 04:00:00 -4,9 -6,8 -10,1 0,1 0,9 3,3 5 3 9 5 S 34 0 0,0
21.01.2020 03:00:00 -4,9 -6,0 -9,9 0,1 0,9 3,3 4 2 10 5 SW 15 0 0,0
21.01.2020 02:00:00 -4,8 -5,9 -9,2 0,1 0,9 3,3 5 3 11 6 SSW 18 0 0,0
21.01.2020 01:00:00 -4,9 -6,0 -7,2 0,1 0,9 3,3 7 4 12 6 SSW 19 0 0,0
21.01.2020 00:00:00 -5,3 -6,1 -11,1 0,1 0,9 3,3 7 4 11 6 SSW 15 0 0,0
20.01.2020 23:00:00 -5,4 -6,3 -11,1 0,2 0,9 3,3 2 1 8 4 SSW 17 0 0,0
20.01.2020 22:00:00 -5,8 -6,9 -11,4 0,2 0,9 3,3 2 1 7 4 SW 17 0 0,0
20.01.2020 21:00:00 -5,8 -6,9 -10,0 0,2 0,9 3,3 4 2 9 5 SW 17 0 0,0
20.01.2020 20:00:00 -6,1 -7,3 -11,4 0,2 0,9 3,3 2 1 5 3 WNW 16 0 0,0
20.01.2020 19:00:00 -5,0 -6,0 -10,4 0,2 0,9 3,3 2 1 5 3 S 17 0 0,0
20.01.2020 18:00:00 -4,2 -5,3 -10,2 0,2 1,0 3,3 0 0 4 2 N 17 0 0,0
20.01.2020 17:00:00 -3,2 -4,6 -10,3 0,3 1,0 3,3 0 0 4 2 N 20 0 0,0
20.01.2020 16:00:00 -1,9 -4,2 -4,0 0,3 1,0 3,3 4 2 9 5 E 25 0 0,0
20.01.2020 15:00:00 -1,5 -4,1 -1,0 0,3 1,0 3,3 3 2 10 5 WSW 30 0 0,0
20.01.2020 14:00:00 -1,7 -4,3 -1,3 0,3 1,0 3,3 5 3 9 5 SSE 23 0 0,0
20.01.2020 13:00:00 -1,6 -4,1 -1,0 0,3 1,0 3,3 5 3 9 5 ENE 24 0 0,0
20.01.2020 12:00:00 -1,8 -5,3 -1,3 0,3 1,0 3,3 6 4 10 6 ENE 31 0 0,0
20.01.2020 11:00:00 -1,9 -5,0 -1,8 0,3 1,0 3,3 4 2 8 4 ENE 38 0 0,0
20.01.2020 10:00:00 -2,1 -3,6 -2,0 0,3 1,0 3,3 2 1 11 6 E 15 0 0,0
20.01.2020 09:00:00 -2,4 -3,3 -2,3 0,3 1,0 3,3 4 2 10 6 ENE 6 0 0,0
20.01.2020 08:00:00 -2,2 -2,9 -2,1 0,3 1,0 3,3 5 3 16 9 NE 3,8 0 0,3
20.01.2020 07:00:00 -2,3 -3,4 -2,3 0,3 1,0 3,3 3 2 14 8 NNE 12 0 0,0
20.01.2020 06:00:00 -2,3 -3,2 -2,3 0,3 1,0 3,3 5 3 12 6 NE 10 0 0,0
20.01.2020 05:00:00 -2,2 -2,9 -2,3 0,3 1,0 3,3 6 3 13 7 NE 8 0 0,0
20.01.2020 04:00:00 -2,2 -2,9 -2,3 0,3 1,0 3,3 4 2 14 7 NE 10 0 0,0
20.01.2020 03:00:00 -2,4 -3,1 -2,5 0,3 1,0 3,3 4 2 10 6 ENE 12 0 0,0
20.01.2020 02:00:00 -2,2 -2,8 -2,3 0,3 1,0 3,3 5 3 18 10 ENE 13 0 0,0
20.01.2020 01:00:00 -2,0 -2,4 -1,8 0,3 1,0 3,3 3 2 14 8 NNE 0,4 0 0,3
20.01.2020 00:00:00 -2,1 -2,9 -2,1 0,3 1,0 3,3 5 3 16 9 NE 6 0 0,0
19.01.2020 23:00:00 -2,1 -3,0 -2,1 0,3 1,0 3,3 5 3 17 9 NE 12 0 0,0
19.01.2020 22:00:00 -1,8 -2,7 -2,0 0,3 1,0 3,3 6 3 22 12 NNE 11 0 0,3
19.01.2020 21:00:00 -1,8 -2,6 -2,0 0,3 1,0 3,3 4 2 19 10 NNE 2,7 0 0,1
19.01.2020 20:00:00 -2,0 -2,6 -1,9 0,3 1,0 3,3 6 4 20 11 NNE 5 0 0,0
19.01.2020 19:00:00 -2,0 -2,7 -2,0 0,3 1,0 3,3 7 4 25 14 NNE 9 0 0,1
19.01.2020 18:00:00 -2,1 -2,9 -2,0 0,3 1,0 3,3 7 4 16 9 NE 8 0 0,0
19.01.2020 17:00:00 -2,2 -3,3 -2,3 0,3 1,0 3,3 5 3 22 12 N 16 0 0,2
19.01.2020 16:00:00 -1,8 -2,6 -1,6 0,3 1,0 3,3 5 3 21 11 N 4,6 0 0,3
19.01.2020 15:00:00 -1,7 -2,6 -1,3 0,3 1,0 3,3 6 3 16 9 N 11 0 0,0
19.01.2020 14:00:00 -1,6 -2,7 -1,2 0,3 1,1 3,3 5 3 15 8 NNE 5 0 0,0
19.01.2020 13:00:00 -1,7 -2,6 -1,4 0,3 1,1 3,3 4 2 13 7 N 10 0 0,1
19.01.2020 12:00:00 -1,6 -2,4 -1,2 0,3 1,1 3,3 4 2 13 7 N 4,8 0 0,2
19.01.2020 11:00:00 -1,7 -2,5 -1,0 0,3 1,1 3,3 6 3 16 8 N 15 0 0,0
19.01.2020 10:00:00 -2,1 -2,8 -1,7 0,3 1,1 3,3 5 3 16 8 N 16 0 0,0
19.01.2020 09:00:00 -2,3 -2,8 -2,0 0,3 1,1 3,3 6 3 16 8 N 0,4 0 0,1
19.01.2020 08:00:00 -2,4 -2,8 -2,0 0,3 1,1 3,3 4 2 13 7 NNW 0,4 0 0,0
19.01.2020 07:00:00 -2,5 -2,9 -2,3 0,3 1,1 3,3 4 2 16 9 NW 0,3 0 0,0
19.01.2020 06:00:00 -2,4 -3,0 -2,2 0,3 1,1 3,3 5 3 18 10 NW 0,3 0 0,0
19.01.2020 05:00:00 -2,1 -3,0 -2,0 0,3 1,2 3,3 4 2 15 8 NNW 10 0 0,0
19.01.2020 04:00:00 -1,9 -3,0 -1,9 0,4 1,2 3,3 5 3 14 7 NW 15 0 0,0
19.01.2020 03:00:00 -1,7 -2,6 -1,7 0,4 1,2 3,3 5 3 16 8 NW 8 0 0,4
19.01.2020 02:00:00 -1,6 -2,7 -1,5 0,4 1,2 3,3 5 3 16 9 WNW 13 0 0,0
19.01.2020 01:00:00 -1,4 -2,8 -1,3 0,4 1,2 3,3 5 3 19 11 WNW 27 0 0,0
19.01.2020 00:00:00 -1,2 -2,6 -1,2 0,4 1,3 3,3 6 4 18 10 WNW 26 0 0,0
18.01.2020 23:00:00 -1,1 -2,5 -1,1 0,4 1,3 3,3 7 4 19 11 WNW 28 0 0,0
18.01.2020 22:00:00 -1,0 -2,6 -1,2 0,5 1,3 3,3 6 3 16 9 W 29 0 0,0
18.01.2020 21:00:00 -0,9 -2,8 -1,0 0,5 1,4 3,3 7 4 16 9 W 44 0 0,0
18.01.2020 20:00:00 -0,8 -2,8 -0,9 0,6 1,4 3,3 8 4 19 11 W 46 0 0,0
18.01.2020 19:00:00 -0,8 -3,2 -1,5 0,6 1,5 3,3 8 5 20 11 W 63 0 0,0
18.01.2020 18:00:00 -0,6 -3,5 -1,1 0,8 1,5 3,3 5 3 22 12 W 58 0 0,0
18.01.2020 17:00:00 -0,4 -2,9 -0,7 1,0 1,5 3,3 10 5 24 13 W 61 0 0,0
18.01.2020 16:00:00 0,1 -2,6 -0,2 1,4 1,5 3,3 9 5 23 12 W 69 0 0,0
18.01.2020 15:00:00 0,3 -2,9 0,1 1,8 1,4 3,3 9 5 30 16 WNW 70 0 0,0
18.01.2020 14:00:00 0,5 -2,5 0,6 2,0 1,3 3,3 15 8 31 17 W 55 8 0,0
18.01.2020 13:00:00 1,2 -1,4 2,0 1,8 1,2 3,3 16 9 35 19 W 35 24 0,0
18.01.2020 12:00:00 0,3 -1,7 0,6 1,4 1,1 3,3 11 6 24 13 W 46 2 0,0
18.01.2020 11:00:00 0,3 -1,3 1,0 0,7 1,1 3,3 9 5 22 12 W 46 0 0,0
18.01.2020 10:00:00 -0,4 -1,5 -0,6 0,4 1,1 3,3 9 5 26 14 W 25 0 0,0
18.01.2020 09:00:00 -0,2 -1,1 -0,5 0,4 1,1 3,3 9 5 22 12 W 14 0 0,0
18.01.2020 08:00:00 0,0 -0,7 -0,2 0,5 1,1 3,3 6 3 22 12 WNW 8 0 0,0
18.01.2020 07:00:00 0,7 -0,1 0,4 0,7 1,1 3,3 9 5 23 12 WNW 8 0 0,0
18.01.2020 06:00:00 1,4 0,8 1,1 0,7 1,1 3,3 8 4 22 12 WNW 8 0 0,0
18.01.2020 05:00:00 1,5 1,1 1,3 0,6 1,1 3,3 9 5 24 13 W 5 0 0,0
18.01.2020 04:00:00 1,6 0,9 1,0 0,6 1,1 3,3 9 5 18 10 W 8 0 0,1
18.01.2020 03:00:00 2,1 1,9 1,9 0,4 1,1 3,3 7 4 25 13 WNW 0,9 0 0,1

tt = temperature
td = dewpoint
tt 5cm = temperature 5cm
tt -5cm = temperature -5cm
tt -20cm = temperature -20cm
tt -100cm = temperature -100cm
ff = wind speed
fx = gusts
dd = wind direction
vv = visibility
sd = sunshine duration
rr = precipitation

Next stations